Time;durP1;ratioP1;P1;durP2;ratioP2;P2;SDS_P1;SDS_P2;PMS_P1;PMS_P2;Temp;Humidity;BMP_temperature;BMP_pressure;BME280_temperature;BME280_humidity;BME280_pressure;Samples;Min_cycle;Max_cycle;Signal;HPM_P1;HPM_P2
2022/10/31 00:01:16;;;;;;;11.38;3.65;;;16.10;99.90;;;;;;4901396;29;20483;-80
2022/10/31 00:03:42;;;;;;;9.02;4.13;;;16.10;99.90;;;;;;4918233;29;20043;-80
2022/10/31 00:06:08;;;;;;;13.30;4.15;;;16.10;99.90;;;;;;4918301;29;20040;-80
2022/10/31 00:08:34;;;;;;;11.10;4.30;;;16.10;99.90;;;;;;4918389;29;20056;-80
2022/10/31 00:11:00;;;;;;;10.98;4.07;;;16.10;99.90;;;;;;4918208;29;20028;-80
2022/10/31 00:13:26;;;;;;;12.80;4.38;;;16.10;99.90;;;;;;4918087;29;20394;-80
2022/10/31 00:15:51;;;;;;;13.32;4.10;;;16.10;99.90;;;;;;4918249;29;20029;-80
2022/10/31 00:18:17;;;;;;;14.40;4.38;;;16.10;99.90;;;;;;4918075;29;20503;-80
2022/10/31 00:20:43;;;;;;;10.57;4.53;;;16.10;99.90;;;;;;4901143;29;20028;-80
2022/10/31 00:23:10;;;;;;;10.48;4.53;;;16.10;99.90;;;;;;4918050;29;20035;-80
2022/10/31 00:25:38;;;;;;;11.90;4.13;;;16.10;99.90;;;;;;4901017;29;20558;-81
2022/10/31 00:28:05;;;;;;;10.52;4.65;;;16.10;99.90;;;;;;4917955;29;20063;-80
2022/10/31 00:30:31;;;;;;;10.73;4.78;;;16.10;99.90;;;;;;4914381;29;20133;-80
2022/10/31 00:32:57;;;;;;;17.58;5.10;;;16.10;99.90;;;;;;4898873;29;20042;-80
2022/10/31 00:35:23;;;;;;;10.57;4.45;;;16.10;99.90;;;;;;4898943;29;20081;-80
2022/10/31 00:37:48;;;;;;;11.02;5.13;;;16.10;99.90;;;;;;4882231;29;20031;-80
2022/10/31 00:40:14;;;;;;;11.70;4.65;;;16.10;99.90;;;;;;4898826;29;20029;-80
2022/10/31 00:42:41;;;;;;;13.73;5.35;;;16.00;99.90;;;;;;4881998;29;20033;-81
2022/10/31 00:45:11;;;;;;;15.73;4.82;;;16.10;99.90;;;;;;4882051;29;20399;-80
2022/10/31 00:47:37;;;;;;;7.75;4.25;;;16.10;99.90;;;;;;4898790;29;20085;-80
2022/10/31 00:50:04;;;;;;;10.90;4.82;;;16.00;99.90;;;;;;4881685;29;20535;-80
2022/10/31 00:52:30;;;;;;;11.15;4.53;;;16.00;99.90;;;;;;4881631;29;20484;-80
2022/10/31 00:54:56;;;;;;;12.38;4.65;;;16.00;99.90;;;;;;4898629;29;20016;-80
2022/10/31 00:57:21;;;;;;;13.75;4.63;;;16.00;99.90;;;;;;4898513;29;20051;-80
2022/10/31 00:59:47;;;;;;;10.25;4.50;;;16.00;99.90;;;;;;4899937;29;20028;-80
2022/10/31 01:02:13;;;;;;;13.23;4.80;;;15.90;99.90;;;;;;4900382;29;20107;-80
2022/10/31 01:04:38;;;;;;;11.75;4.97;;;15.90;99.90;;;;;;4900291;29;20447;-80
2022/10/31 01:07:04;;;;;;;15.57;5.40;;;15.90;99.90;;;;;;4917130;29;20048;-80
2022/10/31 01:09:30;;;;;;;12.40;4.63;;;15.90;99.90;;;;;;4917187;29;20028;-80
2022/10/31 01:11:55;;;;;;;12.18;5.03;;;15.90;99.90;;;;;;4900033;29;20063;-80
2022/10/31 01:14:21;;;;;;;11.68;5.18;;;15.90;99.90;;;;;;4900143;29;20024;-80
2022/10/31 01:16:47;;;;;;;9.82;4.53;;;15.80;99.90;;;;;;4900259;29;20028;-80
2022/10/31 01:19:12;;;;;;;12.65;5.65;;;15.80;99.90;;;;;;4917025;29;20032;-80
2022/10/31 01:21:38;;;;;;;13.90;5.25;;;15.80;99.90;;;;;;4900210;29;20111;-80
2022/10/31 01:24:04;;;;;;;10.40;4.93;;;15.80;99.90;;;;;;4916855;29;20499;-80
2022/10/31 01:26:32;;;;;;;11.68;4.90;;;15.80;99.90;;;;;;4916801;29;20523;-80
2022/10/31 01:29:03;;;;;;;15.80;5.47;;;15.80;99.90;;;;;;4916768;29;20035;-80
2022/10/31 01:31:33;;;;;;;11.00;5.15;;;15.70;99.90;;;;;;4899779;29;20031;-80
2022/10/31 01:33:58;;;;;;;12.38;4.78;;;15.80;99.90;;;;;;4916780;29;20036;-80
2022/10/31 01:36:26;;;;;;;13.80;4.82;;;15.70;99.90;;;;;;4899595;29;20387;-80
2022/10/31 01:38:53;;;;;;;8.70;4.32;;;15.70;99.90;;;;;;4916614;29;20059;-79
2022/10/31 01:41:22;;;;;;;9.52;4.70;;;15.70;99.90;;;;;;4899074;29;20036;-80
2022/10/31 01:43:48;;;;;;;9.82;4.50;;;15.70;99.90;;;;;;4899548;29;20032;-80
2022/10/31 01:46:15;;;;;;;14.50;4.15;;;15.60;99.90;;;;;;4899485;29;20091;-80
2022/10/31 01:48:41;;;;;;;12.77;5.07;;;15.60;99.90;;;;;;4916542;29;20039;-80
2022/10/31 01:51:11;;;;;;;9.70;4.50;;;15.70;99.90;;;;;;4916555;29;20028;-80
2022/10/31 01:53:37;;;;;;;11.70;4.80;;;15.60;99.90;;;;;;4899394;29;20376;-80
2022/10/31 01:56:03;;;;;;;10.63;4.60;;;15.60;99.90;;;;;;4916587;29;20020;-80
2022/10/31 01:58:31;;;;;;;11.63;3.85;;;15.60;99.90;;;;;;4916224;29;20538;-80
2022/10/31 02:00:59;;;;;;;12.25;4.68;;;15.60;99.90;;;;;;4910676;29;20488;-80
2022/10/31 02:03:26;;;;;;;16.27;4.63;;;15.60;99.90;;;;;;4897463;29;20037;-80
2022/10/31 02:05:56;;;;;;;15.50;4.40;;;15.60;99.90;;;;;;4897295;29;20036;-80
2022/10/31 02:08:25;;;;;;;16.85;4.78;;;15.60;99.90;;;;;;4880742;29;20032;-80
2022/10/31 02:10:51;;;;;;;13.45;4.32;;;15.60;99.90;;;;;;4897130;29;20032;-80
2022/10/31 02:13:18;;;;;;;8.77;4.47;;;15.60;99.90;;;;;;4897145;29;20131;-80
2022/10/31 02:15:47;;;;;;;9.93;3.83;;;15.60;99.90;;;;;;4897375;29;20033;-80
2022/10/31 02:18:13;;;;;;;12.43;4.00;;;15.60;99.90;;;;;;4897220;29;20032;-80
2022/10/31 02:21:04;;;;;;;10.02;3.53;;;15.60;99.90;;;;;;4897003;29;20436;-80
2022/10/31 02:23:30;;;;;;;12.40;4.30;;;15.60;99.90;;;;;;4886942;29;20507;-80
2022/10/31 02:26:27;;;;;;;9.45;3.30;;;15.60;99.90;;;;;;4896916;29;20297;-80
2022/10/31 02:29:29;;;;;;;13.00;3.45;;;15.60;99.90;;;;;;4896972;29;20427;-80
2022/10/31 02:32:07;;;;;;;9.80;3.00;;;15.60;99.90;;;;;;4910093;29;20032;-79
2022/10/31 02:34:52;;;;;;;9.82;4.00;;;15.60;99.90;;;;;;4915968;29;20020;-79
2022/10/31 02:37:24;;;;;;;5.88;2.88;;;15.60;99.90;;;;;;4915839;29;20435;-80
2022/10/31 02:40:11;;;;;;;10.57;4.22;;;15.70;99.90;;;;;;4915734;29;20032;-80
2022/10/31 02:42:52;;;;;;;9.82;3.03;;;15.70;99.90;;;;;;4898836;29;20043;-80
2022/10/31 02:45:36;;;;;;;7.68;2.85;;;15.60;99.90;;;;;;4915830;29;20035;-80
2022/10/31 02:48:11;;;;;;;10.25;2.85;;;15.60;99.90;;;;;;4915619;29;20103;-79
2022/10/31 02:50:42;;;;;;;5.13;2.45;;;15.60;99.90;;;;;;4915722;29;20099;-80
2022/10/31 02:53:07;;;;;;;11.10;2.92;;;15.60;99.90;;;;;;4917281;29;20034;-80
2022/10/31 02:55:33;;;;;;;7.75;2.72;;;15.60;99.90;;;;;;4919618;29;20107;-80
2022/10/31 02:58:09;;;;;;;6.90;3.10;;;15.60;99.90;;;;;;4902404;29;20031;-80
2022/10/31 03:00:49;;;;;;;13.02;3.35;;;15.60;99.90;;;;;;4917645;29;20505;-80
2022/10/31 03:03:49;;;;;;;11.88;2.60;;;15.60;99.90;;;;;;4902377;29;20032;-80
2022/10/31 03:06:29;;;;;;;11.15;3.00;;;15.60;99.90;;;;;;4877018;29;20054;-80
2022/10/31 03:09:15;;;;;;;9.02;2.67;;;15.60;99.90;;;;;;4919274;29;20557;-80
2022/10/31 03:12:12;;;;;;;6.40;3.10;;;15.70;99.90;;;;;;4900350;29;20036;-80
2022/10/31 03:14:52;;;;;;;11.85;3.22;;;15.60;99.90;;;;;;4899773;29;20111;-80
2022/10/31 03:17:34;;;;;;;10.20;2.45;;;15.60;99.90;;;;;;4900337;29;20028;-80
2022/10/31 03:20:03;;;;;;;11.40;2.58;;;15.60;99.90;;;;;;4900343;29;20025;-80
2022/10/31 03:22:32;;;;;;;8.32;2.15;;;15.60;99.90;;;;;;4883503;29;20033;-80
2022/10/31 03:25:02;;;;;;;10.20;2.88;;;15.70;99.90;;;;;;4900306;29;20036;-80
2022/10/31 03:27:32;;;;;;;9.43;2.38;;;15.70;99.90;;;;;;4900376;29;20053;-80
2022/10/31 03:30:01;;;;;;;12.32;2.85;;;15.70;99.90;;;;;;4900124;29;20028;-80
2022/10/31 03:32:42;;;;;;;12.30;3.42;;;15.70;99.90;;;;;;4900349;29;20142;-80
2022/10/31 03:35:09;;;;;;;7.43;2.97;;;15.60;99.90;;;;;;4918813;29;20077;-80
2022/10/31 03:37:37;;;;;;;5.18;2.35;;;15.60;99.90;;;;;;4902181;29;20450;-80
2022/10/31 03:40:06;;;;;;;7.35;2.30;;;15.60;99.90;;;;;;4901857;29;20032;-80
2022/10/31 03:42:37;;;;;;;8.60;2.75;;;15.60;99.90;;;;;;4901792;29;20084;-80
2022/10/31 03:45:06;;;;;;;7.78;2.45;;;15.60;99.90;;;;;;4901871;29;20039;-80
2022/10/31 03:47:34;;;;;;;8.65;2.47;;;15.60;99.90;;;;;;4918614;29;20032;-80
2022/10/31 03:50:00;;;;;;;8.15;2.10;;;15.50;99.90;;;;;;4918566;29;20032;-80
2022/10/31 03:52:29;;;;;;;7.53;2.55;;;15.60;99.90;;;;;;4918422;29;20036;-80
2022/10/31 03:55:12;;;;;;;12.55;3.47;;;15.50;99.90;;;;;;4918494;29;20020;-80
2022/10/31 03:58:08;;;;;;;8.60;2.55;;;15.50;99.90;;;;;;4901438;29;20491;-80
2022/10/31 04:00:34;;;;;;;8.20;2.38;;;15.50;99.90;;;;;;4918432;29;20055;-80
2022/10/31 04:03:23;;;;;;;9.20;2.92;;;15.40;99.90;;;;;;4918401;29;20047;-80
2022/10/31 04:05:53;;;;;;;8.50;2.88;;;15.40;99.90;;;;;;4901217;29;20100;-80
2022/10/31 04:08:24;;;;;;;7.20;2.28;;;15.30;99.90;;;;;;4918396;29;20032;-80
2022/10/31 04:10:51;;;;;;;15.73;3.88;;;15.30;99.90;;;;;;4918385;29;20046;-80
2022/10/31 04:13:23;;;;;;;10.43;3.38;;;15.30;99.90;;;;;;4901248;29;20036;-80
2022/10/31 04:15:51;;;;;;;9.35;3.70;;;15.30;99.90;;;;;;4918224;29;20024;-80
2022/10/31 04:18:17;;;;;;;7.90;2.38;;;15.20;99.90;;;;;;4901131;29;20413;-80
2022/10/31 04:20:43;;;;;;;6.68;2.38;;;15.20;99.90;;;;;;4900987;29;20134;-80
2022/10/31 04:23:22;;;;;;;6.75;2.97;;;15.20;99.90;;;;;;4918161;29;20030;-80
2022/10/31 04:25:47;;;;;;;7.45;2.90;;;15.20;99.90;;;;;;4918116;29;20111;-80
2022/10/31 04:28:13;;;;;;;8.48;2.45;;;15.20;99.90;;;;;;4917758;29;20107;-80
2022/10/31 04:30:39;;;;;;;10.40;2.85;;;15.20;99.90;;;;;;4918086;29;20028;-80
2022/10/31 04:33:04;;;;;;;4.95;2.53;;;15.20;99.90;;;;;;4900707;29;20032;-80
2022/10/31 04:35:30;;;;;;;7.78;3.13;;;15.20;99.90;;;;;;4917690;29;20383;-80
2022/10/31 04:37:56;;;;;;;7.25;2.78;;;15.10;99.90;;;;;;4917976;29;20079;-80
2022/10/31 04:40:21;;;;;;;12.90;3.28;;;15.10;99.90;;;;;;4917564;29;20472;-80
2022/10/31 04:42:47;;;;;;;7.90;2.78;;;15.10;99.90;;;;;;4917686;29;20032;-80
2022/10/31 04:45:12;;;;;;;8.68;2.58;;;15.10;99.90;;;;;;4917698;29;20032;-80
2022/10/31 04:47:38;;;;;;;11.77;3.50;;;15.00;99.90;;;;;;4917609;29;20273;-80
2022/10/31 04:50:04;;;;;;;7.82;2.95;;;15.00;99.90;;;;;;4917373;29;20027;-80
2022/10/31 04:52:30;;;;;;;5.35;2.30;;;15.00;99.90;;;;;;4917265;29;20085;-80
2022/10/31 04:54:55;;;;;;;6.82;2.60;;;15.00;99.90;;;;;;4917495;29;20111;-80
2022/10/31 04:57:21;;;;;;;10.02;2.70;;;15.00;99.90;;;;;;4917539;29;20476;-80
2022/10/31 04:59:47;;;;;;;8.90;3.10;;;15.00;99.90;;;;;;4917361;29;20038;-79
2022/10/31 05:02:12;;;;;;;10.70;3.28;;;15.00;99.90;;;;;;4917073;29;20036;-80
2022/10/31 05:04:38;;;;;;;8.13;2.63;;;15.00;99.90;;;;;;4917396;29;20031;-80
2022/10/31 05:07:04;;;;;;;9.68;2.95;;;15.00;99.90;;;;;;4916975;29;20048;-80
2022/10/31 05:09:29;;;;;;;9.90;2.30;;;15.00;99.90;;;;;;4900258;29;20554;-80
2022/10/31 05:11:56;;;;;;;6.13;2.20;;;15.00;99.90;;;;;;4917231;29;20095;-80
2022/10/31 05:14:22;;;;;;;8.68;2.15;;;15.00;99.90;;;;;;4900141;29;20036;-80
2022/10/31 05:16:48;;;;;;;8.07;2.50;;;15.00;99.90;;;;;;4916524;29;20095;-80
2022/10/31 05:19:13;;;;;;;9.02;2.58;;;15.00;99.90;;;;;;4917089;29;20028;-80
2022/10/31 05:21:39;;;;;;;9.15;3.38;;;15.10;99.90;;;;;;4917139;29;20501;-80
2022/10/31 05:24:05;;;;;;;9.75;2.30;;;15.00;99.90;;;;;;4917011;29;20064;-80
2022/10/31 05:26:30;;;;;;;8.70;3.13;;;15.00;99.90;;;;;;4917020;29;20028;-80
2022/10/31 05:28:56;;;;;;;6.53;2.65;;;15.00;99.90;;;;;;4916713;29;20079;-80
2022/10/31 05:31:22;;;;;;;9.82;3.33;;;15.00;99.90;;;;;;4908009;29;20032;-80
2022/10/31 05:33:48;;;;;;;8.13;2.78;;;15.00;99.90;;;;;;4898558;29;20115;-79
2022/10/31 05:36:13;;;;;;;6.95;3.00;;;15.00;99.90;;;;;;4898766;29;20023;-80
2022/10/31 05:38:39;;;;;;;7.82;2.35;;;15.10;99.90;;;;;;4881951;29;20035;-80
2022/10/31 05:41:05;;;;;;;7.68;2.33;;;15.10;99.90;;;;;;4898786;29;20441;-80
2022/10/31 05:43:31;;;;;;;6.63;2.28;;;15.10;99.90;;;;;;4908758;29;20080;-80
2022/10/31 05:45:56;;;;;;;8.52;2.25;;;15.10;99.90;;;;;;4899760;29;20088;-80
2022/10/31 05:48:22;;;;;;;10.02;2.72;;;15.10;99.90;;;;;;4897208;29;20475;-80
2022/10/31 05:50:49;;;;;;;8.63;2.70;;;15.10;99.90;;;;;;4916971;29;20031;-80
2022/10/31 05:53:15;;;;;;;8.10;2.80;;;15.10;99.90;;;;;;4916643;29;20043;-80
2022/10/31 05:55:42;;;;;;;9.18;2.97;;;15.10;99.90;;;;;;4899344;29;20039;-80
2022/10/31 05:58:08;;;;;;;5.97;2.30;;;15.10;99.90;;;;;;4916249;29;20477;-80
2022/10/31 06:00:34;;;;;;;6.22;3.05;;;15.10;99.90;;;;;;4916390;29;20013;-80
2022/10/31 06:03:02;;;;;;;6.85;2.42;;;15.10;99.90;;;;;;4900388;29;20458;-80
2022/10/31 06:05:29;;;;;;;8.63;3.00;;;15.00;99.90;;;;;;4916972;29;20039;-80
2022/10/31 06:07:55;;;;;;;10.95;2.75;;;15.10;99.90;;;;;;4917018;29;20131;-80
2022/10/31 06:10:21;;;;;;;7.82;2.40;;;15.10;99.90;;;;;;4916971;29;20032;-80
2022/10/31 06:12:47;;;;;;;6.18;2.55;;;15.10;99.90;;;;;;4916834;29;20032;-80
2022/10/31 06:15:13;;;;;;;9.25;2.72;;;15.10;99.90;;;;;;4916851;29;20103;-80
2022/10/31 06:17:39;;;;;;;6.68;2.85;;;15.00;99.90;;;;;;4916978;29;20065;-80
2022/10/31 06:20:05;;;;;;;11.40;3.20;;;15.00;99.90;;;;;;4916676;29;20035;-80
2022/10/31 06:22:32;;;;;;;7.60;3.13;;;15.00;99.90;;;;;;4916076;29;20020;-80
2022/10/31 06:24:57;;;;;;;11.70;3.30;;;15.00;99.90;;;;;;4916074;29;20055;-80
2022/10/31 06:27:24;;;;;;;11.40;3.65;;;15.00;99.90;;;;;;4916155;29;20084;-80
2022/10/31 06:29:49;;;;;;;10.95;3.75;;;15.00;99.90;;;;;;4916029;29;20479;-80
2022/10/31 06:32:15;;;;;;;8.05;2.70;;;15.10;99.90;;;;;;4898378;29;20107;-80
2022/10/31 06:34:42;;;;;;;8.93;2.45;;;15.10;99.90;;;;;;4916089;29;20139;-80
2022/10/31 06:37:09;;;;;;;7.55;2.60;;;15.10;99.90;;;;;;4899001;29;20087;-80
2022/10/31 06:39:35;;;;;;;12.45;2.83;;;15.10;99.90;;;;;;4914583;29;20028;-80
2022/10/31 06:42:01;;;;;;;7.55;2.97;;;15.10;99.90;;;;;;4914635;29;20036;-80
2022/10/31 06:44:27;;;;;;;8.07;2.33;;;15.10;99.90;;;;;;4914789;29;20435;-80
2022/10/31 06:46:53;;;;;;;12.23;2.78;;;15.10;99.90;;;;;;4914938;29;20056;-80
2022/10/31 06:49:19;;;;;;;12.57;3.35;;;15.20;99.90;;;;;;4914906;29;20036;-80
2022/10/31 06:51:48;;;;;;;8.25;2.97;;;15.20;99.90;;;;;;4915159;29;20483;-80
2022/10/31 06:54:14;;;;;;;9.80;2.28;;;15.20;99.90;;;;;;4898357;29;20025;-80
2022/10/31 06:56:39;;;;;;;6.65;2.67;;;15.20;99.90;;;;;;4916036;29;20112;-80
2022/10/31 06:59:05;;;;;;;11.00;2.38;;;15.20;99.90;;;;;;4915752;29;20486;-80
2022/10/31 07:01:31;;;;;;;15.57;3.42;;;15.20;99.90;;;;;;4915731;29;20020;-79
2022/10/31 07:03:56;;;;;;;8.65;2.80;;;15.30;99.90;;;;;;4915777;29;20479;-80
2022/10/31 07:06:22;;;;;;;11.60;3.65;;;15.30;99.90;;;;;;4898737;29;20060;-80
2022/10/31 07:08:48;;;;;;;13.38;3.85;;;15.30;99.90;;;;;;4915765;29;20111;-80
2022/10/31 07:11:14;;;;;;;10.00;4.28;;;15.30;99.90;;;;;;4898733;29;20028;-80
2022/10/31 07:13:40;;;;;;;10.40;3.50;;;15.30;99.90;;;;;;4915728;29;20032;-80
2022/10/31 07:16:13;;;;;;;12.35;3.55;;;15.30;99.90;;;;;;4898773;29;20566;-80
2022/10/31 07:18:39;;;;;;;10.15;3.72;;;15.30;99.90;;;;;;4915615;29;20079;-78
2022/10/31 07:21:05;;;;;;;7.13;3.15;;;15.40;99.90;;;;;;4914706;29;20044;-80
2022/10/31 07:23:31;;;;;;;12.13;4.03;;;15.80;99.90;;;;;;4883521;29;20068;-79
2022/10/31 07:25:58;;;;;;;8.88;3.40;;;15.70;99.90;;;;;;4896450;29;20033;-80
2022/10/31 07:28:24;;;;;;;10.43;3.85;;;15.70;99.90;;;;;;4896132;29;20093;-80
2022/10/31 07:30:55;;;;;;;11.90;3.78;;;15.70;99.90;;;;;;4896202;29;20031;-80
2022/10/31 07:33:21;;;;;;;10.25;3.05;;;15.70;99.90;;;;;;4895956;29;20107;-80
2022/10/31 07:35:47;;;;;;;10.68;3.55;;;15.70;99.90;;;;;;4895810;29;20412;-80
2022/10/31 07:38:14;;;;;;;13.27;3.45;;;15.80;99.90;;;;;;4895124;29;20063;-80
2022/10/31 07:40:41;;;;;;;10.38;2.95;;;15.80;99.90;;;;;;4898726;29;20518;-80
2022/10/31 07:43:08;;;;;;;10.55;3.30;;;15.80;99.90;;;;;;4899294;29;20032;-80
2022/10/31 07:45:34;;;;;;;9.13;2.97;;;15.80;99.90;;;;;;4899395;29;20032;-80
2022/10/31 07:47:59;;;;;;;9.93;3.15;;;15.80;99.90;;;;;;4898248;29;20032;-80
2022/10/31 07:50:28;;;;;;;11.65;2.67;;;15.90;99.90;;;;;;4899364;29;20414;-80
2022/10/31 07:53:08;;;;;;;11.05;3.40;;;15.90;99.90;;;;;;4899579;29;20039;-80
2022/10/31 07:55:34;;;;;;;8.52;3.80;;;15.90;99.90;;;;;;4899617;29;20112;-80
2022/10/31 07:58:02;;;;;;;11.52;3.22;;;15.90;99.90;;;;;;4899497;29;20111;-80
2022/10/31 08:00:28;;;;;;;9.48;3.17;;;16.00;99.90;;;;;;4899556;29;20037;-80
2022/10/31 08:03:15;;;;;;;8.38;3.05;;;16.00;99.90;;;;;;4899391;29;20128;-80
2022/10/31 08:05:41;;;;;;;10.43;3.83;;;16.00;99.90;;;;;;4899571;29;20443;-80
2022/10/31 08:08:08;;;;;;;10.50;3.47;;;16.00;99.90;;;;;;4899291;29;20040;-80
2022/10/31 08:10:34;;;;;;;16.00;4.03;;;16.00;99.90;;;;;;4899467;29;20037;-80
2022/10/31 08:13:05;;;;;;;10.75;3.33;;;16.00;99.90;;;;;;4899582;29;20089;-80
2022/10/31 08:15:34;;;;;;;10.43;3.95;;;16.10;99.90;;;;;;4882600;29;20063;-80
2022/10/31 08:18:00;;;;;;;14.02;5.35;;;16.10;99.90;;;;;;4899325;29;20048;-80
2022/10/31 08:20:26;;;;;;;15.82;5.60;;;16.10;99.90;;;;;;4899236;29;20020;-79
2022/10/31 08:22:54;;;;;;;14.35;5.78;;;16.20;99.90;;;;;;4899407;29;20028;-80
2022/10/31 08:25:20;;;;;;;11.25;5.45;;;16.20;99.90;;;;;;4899266;29;20039;-80
2022/10/31 08:27:51;;;;;;;18.90;7.07;;;16.30;99.90;;;;;;4899166;29;20024;-79
2022/10/31 08:30:17;;;;;;;16.98;7.43;;;16.40;99.90;;;;;;4899855;29;20595;-80
2022/10/31 08:32:43;;;;;;;16.80;6.68;;;16.50;99.90;;;;;;4918617;29;20056;-80
2022/10/31 08:35:08;;;;;;;19.95;6.97;;;16.40;99.90;;;;;;4918707;29;20111;-80
2022/10/31 08:37:34;;;;;;;23.08;6.43;;;16.50;99.90;;;;;;4918543;29;20028;-80
2022/10/31 08:40:00;;;;;;;26.75;7.38;;;16.50;99.90;;;;;;4918576;29;20035;-79
2022/10/31 08:42:25;;;;;;;17.17;6.53;;;16.50;99.90;;;;;;4901500;29;20032;-79
2022/10/31 08:44:51;;;;;;;21.60;8.15;;;16.50;99.90;;;;;;4918595;29;20068;-80
2022/10/31 08:47:17;;;;;;;20.20;7.65;;;16.60;99.90;;;;;;4917991;29;20024;-80
2022/10/31 08:49:42;;;;;;;15.65;8.13;;;16.60;99.90;;;;;;4900284;29;20040;-80
2022/10/31 08:52:08;;;;;;;25.58;10.18;;;16.60;99.90;;;;;;4917080;29;20091;-80
2022/10/31 08:54:34;;;;;;;22.10;9.70;;;16.60;99.90;;;;;;4917391;29;20028;-80
2022/10/31 08:56:59;;;;;;;25.10;10.80;;;16.70;99.90;;;;;;4917518;29;20103;-80
2022/10/31 08:59:25;;;;;;;30.52;12.48;;;16.70;99.90;;;;;;4917394;29;20016;-80
2022/10/31 09:01:51;;;;;;;34.22;14.23;;;16.80;99.90;;;;;;4917616;29;20100;-79
2022/10/31 09:04:16;;;;;;;34.85;14.57;;;16.80;99.90;;;;;;4917250;29;20029;-80
2022/10/31 09:06:42;;;;;;;33.47;15.82;;;16.90;99.90;;;;;;4900223;29;20554;-80
2022/10/31 09:09:08;;;;;;;34.83;14.35;;;17.10;99.90;;;;;;4917074;29;20032;-80
2022/10/31 09:11:33;;;;;;;30.60;14.52;;;17.10;99.90;;;;;;4917002;29;20029;-80
2022/10/31 09:13:59;;;;;;;32.97;15.45;;;17.20;99.90;;;;;;4899930;29;20391;-80
2022/10/31 09:16:25;;;;;;;35.47;14.65;;;17.30;99.90;;;;;;4900155;29;20056;-80
2022/10/31 09:18:50;;;;;;;29.55;14.93;;;17.30;99.90;;;;;;4916949;29;20682;-80
2022/10/31 09:21:16;;;;;;;30.83;14.32;;;17.30;99.90;;;;;;4916945;29;20035;-80
2022/10/31 09:23:42;;;;;;;29.90;14.27;;;17.50;99.90;;;;;;4916844;29;20027;-80
2022/10/31 09:26:07;;;;;;;31.83;13.60;;;17.50;99.90;;;;;;4916558;29;20479;-80
2022/10/31 09:28:33;;;;;;;31.58;11.90;;;17.50;99.90;;;;;;4897951;29;20111;-80
2022/10/31 09:30:59;;;;;;;27.70;11.95;;;17.50;99.90;;;;;;4886920;29;20036;-80
2022/10/31 09:33:24;;;;;;;26.20;13.27;;;17.60;99.90;;;;;;4916488;29;20025;-80
2022/10/31 09:35:50;;;;;;;27.17;13.30;;;17.60;99.90;;;;;;4916663;29;20041;-80
2022/10/31 09:38:19;;;;;;;26.60;12.35;;;17.50;99.90;;;;;;4899322;29;20030;-80
2022/10/31 09:40:55;;;;;;;31.80;12.77;;;17.60;99.90;;;;;;4916374;29;20024;-80
2022/10/31 09:43:42;;;;;;;24.45;12.23;;;17.60;99.90;;;;;;4916727;29;20028;-80
2022/10/31 09:46:35;;;;;;;28.20;12.38;;;17.60;99.90;;;;;;4916671;29;20035;-80
2022/10/31 09:49:16;;;;;;;27.25;12.35;;;17.60;99.90;;;;;;4899453;29;20036;-80
2022/10/31 09:51:53;;;;;;;32.10;12.52;;;17.60;99.90;;;;;;4916447;29;20024;-80
2022/10/31 09:54:27;;;;;;;28.02;12.07;;;17.70;99.90;;;;;;4899287;29;20038;-80
2022/10/31 09:56:53;;;;;;;29.02;13.05;;;17.70;99.90;;;;;;4899251;29;20028;-80
2022/10/31 09:59:37;;;;;;;21.48;10.90;;;17.70;99.90;;;;;;4899109;29;20036;-80
2022/10/31 10:02:29;;;;;;;30.55;12.68;;;17.80;99.90;;;;;;4915993;29;20471;-79
2022/10/31 10:05:00;;;;;;;34.35;12.30;;;18.00;99.90;;;;;;4899153;29;20032;-80
2022/10/31 10:07:38;;;;;;;25.50;11.35;;;18.20;99.90;;;;;;4915899;29;20040;-80
2022/10/31 10:10:41;;;;;;;24.20;11.13;;;18.20;99.90;;;;;;4916118;29;20084;-79
2022/10/31 10:13:12;;;;;;;30.83;10.73;;;18.30;99.90;;;;;;4915934;29;20039;-80
2022/10/31 10:15:41;;;;;;;28.98;10.23;;;18.30;99.90;;;;;;4916059;29;20027;-80
2022/10/31 10:18:33;;;;;;;21.10;9.40;;;18.30;99.90;;;;;;4916044;29;20028;-79
2022/10/31 10:21:14;;;;;;;26.20;9.57;;;18.30;99.90;;;;;;4914435;29;20398;-80
2022/10/31 10:24:19;;;;;;;28.42;9.75;;;18.40;99.90;;;;;;4899012;29;20031;-80
2022/10/31 10:27:16;;;;;;;27.83;9.85;;;18.40;99.90;;;;;;4915821;29;20483;-80
2022/10/31 10:29:57;;;;;;;27.10;9.65;;;18.40;99.90;;;;;;4898924;29;20032;-80
2022/10/31 10:32:37;;;;;;;29.95;9.48;;;18.50;99.90;;;;;;4915556;29;20150;-80
2022/10/31 10:35:09;;;;;;;23.25;9.18;;;18.60;99.90;;;;;;4915628;29;20028;-80
2022/10/31 10:37:39;;;;;;;22.17;9.02;;;18.60;99.90;;;;;;4915622;29;20081;-79
2022/10/31 10:40:16;;;;;;;26.92;8.30;;;18.60;99.90;;;;;;4915725;29;20375;-80
2022/10/31 10:48:28;;;;;;;15.93;7.32;;;18.90;99.90;;;;;;4915856;29;20120;-80
2022/10/31 10:50:53;;;;;;;19.77;7.47;;;19.00;99.90;;;;;;4915558;29;20089;-79
2022/10/31 10:53:48;;;;;;;17.73;6.28;;;19.20;99.90;;;;;;4915653;29;20032;-79
2022/10/31 10:56:46;;;;;;;22.25;6.68;;;19.30;99.90;;;;;;4898523;29;20097;-80
2022/10/31 10:59:16;;;;;;;21.02;6.80;;;19.30;99.90;;;;;;4892937;29;20087;-80
2022/10/31 11:01:42;;;;;;;17.02;6.13;;;19.30;99.90;;;;;;4898605;29;20391;-79
2022/10/31 11:04:33;;;;;;;25.10;6.68;;;19.30;99.90;;;;;;4915043;29;20028;-79
2022/10/31 11:07:08;;;;;;;13.93;5.30;;;19.40;99.90;;;;;;4915369;29;20059;-80
2022/10/31 11:09:34;;;;;;;24.25;6.50;;;19.40;99.90;;;;;;4915372;29;20487;-80
2022/10/31 11:12:10;;;;;;;15.95;5.78;;;19.30;99.90;;;;;;4915407;29;20032;-79
2022/10/31 11:15:07;;;;;;;11.85;5.47;;;19.30;99.90;;;;;;4900563;29;20098;-80
2022/10/31 11:17:36;;;;;;;15.05;6.32;;;19.30;99.90;;;;;;4902105;29;20032;-80
2022/10/31 11:20:23;;;;;;;25.48;6.18;;;19.40;99.90;;;;;;4919206;29;20021;-80
2022/10/31 11:22:49;;;;;;;20.85;6.68;;;19.50;99.90;;;;;;4918873;29;20040;-79
2022/10/31 11:25:26;;;;;;;19.20;5.88;;;19.50;99.90;;;;;;4918853;29;20046;-80
2022/10/31 11:28:05;;;;;;;21.70;6.28;;;19.60;99.90;;;;;;4918999;29;20028;-79
2022/10/31 11:30:44;;;;;;;15.00;5.75;;;19.60;99.90;;;;;;4916471;29;20032;-80
2022/10/31 11:33:30;;;;;;;23.35;5.95;;;19.60;99.90;;;;;;4901539;29;20051;-80
2022/10/31 11:35:56;;;;;;;23.52;5.50;;;19.70;99.90;;;;;;4883043;29;20052;-80
2022/10/31 11:38:26;;;;;;;19.80;5.60;;;19.70;99.90;;;;;;4899927;29;20080;-79
2022/10/31 11:40:55;;;;;;;18.02;5.80;;;19.70;99.90;;;;;;4900007;29;20369;-80
2022/10/31 11:43:21;;;;;;;17.58;5.88;;;19.70;99.90;;;;;;4899512;29;20060;-80
2022/10/31 11:45:47;;;;;;;15.05;5.70;;;19.80;99.90;;;;;;4899560;29;20507;-80
2022/10/31 11:48:20;;;;;;;13.45;5.78;;;19.80;99.90;;;;;;4882889;29;20057;-80
2022/10/31 11:50:57;;;;;;;19.80;6.15;;;19.80;99.90;;;;;;4882788;29;20539;-80
2022/10/31 11:53:30;;;;;;;18.17;6.20;;;19.90;99.90;;;;;;4899419;29;20043;-80
2022/10/31 11:56:06;;;;;;;18.58;5.72;;;19.90;99.90;;;;;;4882589;29;20522;-80
2022/10/31 11:58:32;;;;;;;15.38;5.70;;;19.90;99.90;;;;;;4882461;29;20105;-79
2022/10/31 12:00:58;;;;;;;16.75;4.75;;;20.00;99.90;;;;;;4888310;29;20198;-79
2022/10/31 12:03:30;;;;;;;15.90;6.15;;;20.10;99.90;;;;;;4918165;29;20055;-79
2022/10/31 12:06:08;;;;;;;19.00;6.80;;;20.30;99.90;;;;;;4918063;29;20048;-80
2022/10/31 12:08:37;;;;;;;18.25;6.47;;;20.30;99.90;;;;;;4918059;29;20063;-79
2022/10/31 12:11:02;;;;;;;17.27;7.50;;;20.30;99.90;;;;;;4900875;29;20035;-79
2022/10/31 12:13:39;;;;;;;21.65;8.13;;;20.30;99.90;;;;;;4917917;29;20036;-79
2022/10/31 12:16:13;;;;;;;20.65;7.75;;;20.40;99.90;;;;;;4900787;29;20525;-80
2022/10/31 12:18:48;;;;;;;25.58;9.35;;;20.40;99.90;;;;;;4917962;29;20030;-79
2022/10/31 12:21:31;;;;;;;23.02;8.00;;;20.40;99.90;;;;;;4917724;29;20036;-79
2022/10/31 12:24:13;;;;;;;22.58;7.63;;;20.50;99.90;;;;;;4917759;29;20035;-79
2022/10/31 12:27:02;;;;;;;29.73;7.82;;;20.50;99.90;;;;;;4900670;29;20254;-79
2022/10/31 12:30:07;;;;;;;25.35;8.13;;;20.60;99.90;;;;;;4888476;29;20505;-77
2022/10/31 12:32:42;;;;;;;20.48;8.13;;;20.50;99.90;;;;;;4890538;29;20035;-79
2022/10/31 12:35:26;;;;;;;21.45;7.53;;;20.60;99.90;;;;;;4913971;29;20036;-79
2022/10/31 12:38:18;;;;;;;27.58;8.02;;;20.60;99.90;;;;;;4887629;29;20088;-78
2022/10/31 12:41:13;;;;;;;21.05;8.40;;;20.60;99.90;;;;;;4905120;29;20146;-78
2022/10/31 12:43:51;;;;;;;17.35;8.15;;;20.50;99.90;;;;;;4914176;29;20028;-78
2022/10/31 12:46:44;;;;;;;20.88;8.10;;;20.50;99.90;;;;;;4913709;29;20043;-79
2022/10/31 12:49:36;;;;;;;22.33;7.38;;;20.50;99.90;;;;;;4913035;29;20106;-80
2022/10/31 12:52:07;;;;;;;17.27;7.90;;;20.40;99.90;;;;;;4892923;29;20036;-80
2022/10/31 12:54:45;;;;;;;19.30;7.80;;;20.30;99.90;;;;;;4896764;29;20048;-80
2022/10/31 12:57:27;;;;;;;22.52;8.20;;;20.40;99.90;;;;;;4913567;29;20100;-80
2022/10/31 13:00:10;;;;;;;25.85;7.97;;;20.30;99.90;;;;;;4914029;29;20115;-80
2022/10/31 13:02:41;;;;;;;20.25;7.68;;;20.40;99.90;;;;;;4894811;29;20180;-80